Time;durP1;ratioP1;P1;durP2;ratioP2;P2;SDS_P1;SDS_P2;PMS_P1;PMS_P2;Temp;Humidity;BMP_temperature;BMP_pressure;BME280_temperature;BME280_humidity;BME280_pressure;Samples;Min_cycle;Max_cycle;Signal;HPM_P1;HPM_P2
2022/10/22 00:01:36;;;;;;;11.20;7.60;;;;;;;13.63;100.00;100275.66;105645;1285;58977;-79
2022/10/22 00:04:04;;;;;;;10.80;7.80;;;;;;;13.61;100.00;100282.30;105529;1289;72020;-79
2022/10/22 00:06:30;;;;;;;13.00;7.90;;;;;;;13.59;100.00;100285.83;105472;1294;61769;-79
2022/10/22 00:08:57;;;;;;;12.70;8.50;;;;;;;13.56;100.00;100287.97;105531;1287;59611;-79
2022/10/22 00:11:23;;;;;;;12.60;8.70;;;;;;;13.53;100.00;100282.14;105477;1295;75797;-79
2022/10/22 00:13:50;;;;;;;11.60;8.10;;;;;;;13.51;100.00;100280.83;105494;1290;71044;-79
2022/10/22 00:16:17;;;;;;;12.00;7.90;;;;;;;13.50;100.00;100280.14;105414;1298;58959;-79
2022/10/22 00:18:43;;;;;;;15.20;7.90;;;;;;;13.49;100.00;100279.47;105489;1290;60584;-79
2022/10/22 00:21:10;;;;;;;10.90;8.30;;;;;;;13.48;100.00;100282.63;105453;1295;58658;-79
2022/10/22 00:23:41;;;;;;;10.20;7.40;;;;;;;13.46;100.00;100295.45;105497;1296;73149;-79
2022/10/22 00:26:09;;;;;;;10.90;7.80;;;;;;;13.44;100.00;100301.36;105427;1293;69546;-80
2022/10/22 00:28:38;;;;;;;10.10;8.30;;;;;;;13.42;100.00;100306.97;105612;1295;72431;-79
2022/10/22 00:31:05;;;;;;;10.40;8.30;;;;;;;13.41;100.00;100303.90;105385;1297;61877;-79
2022/10/22 00:33:32;;;;;;;12.30;7.70;;;;;;;13.40;100.00;100302.50;105411;1294;58899;-79
2022/10/22 00:35:59;;;;;;;12.00;8.50;;;;;;;13.39;100.00;100304.02;105455;1295;73154;-79
2022/10/22 00:38:25;;;;;;;11.60;8.40;;;;;;;13.40;100.00;100306.11;105505;1291;70280;-79
2022/10/22 00:40:52;;;;;;;13.30;8.20;;;;;;;13.40;100.00;100297.30;105514;1295;72575;-79
2022/10/22 00:43:19;;;;;;;12.70;8.30;;;;;;;13.40;100.00;100288.23;105412;1294;61614;-79
2022/10/22 00:45:48;;;;;;;12.10;8.50;;;;;;;13.40;100.00;100283.61;105543;1293;59461;-79
2022/10/22 00:48:20;;;;;;;9.70;7.80;;;;;;;13.41;100.00;100282.11;105607;1294;59720;-79
2022/10/22 00:51:00;;;;;;;10.80;7.80;;;;;;;13.42;100.00;100283.61;105493;1290;71406;-79
2022/10/22 00:53:46;;;;;;;9.60;8.10;;;;;;;13.44;100.00;100293.45;105367;1294;72418;-79
2022/10/22 00:56:13;;;;;;;12.00;7.50;;;;;;;13.44;100.00;100297.02;105408;1290;60445;-79
2022/10/22 00:58:48;;;;;;;10.80;7.40;;;;;;;13.42;100.00;100298.83;105355;1304;61356;-78
2022/10/22 01:01:23;;;;;;;12.50;7.20;;;;;;;13.38;100.00;100302.21;105330;1294;74961;-79
2022/10/22 01:03:51;;;;;;;8.50;6.90;;;;;;;13.33;100.00;100295.97;105467;1297;69892;-79
2022/10/22 01:06:24;;;;;;;9.10;6.80;;;;;;;13.30;100.00;100295.27;105451;1297;73010;-79
2022/10/22 01:09:02;;;;;;;9.20;7.20;;;;;;;13.29;100.00;100294.23;105411;1297;62187;-79
2022/10/22 01:11:40;;;;;;;10.20;6.90;;;;;;;13.27;100.00;100291.80;105480;1294;60710;-79
2022/10/22 01:14:22;;;;;;;10.20;6.90;;;;;;;13.23;100.00;100299.37;105569;1294;74120;-78
2022/10/22 01:17:10;;;;;;;10.10;6.70;;;;;;;13.20;100.00;100307.56;105575;1293;69547;-79
2022/10/22 01:19:58;;;;;;;10.70;7.20;;;;;;;13.17;100.00;100298.77;105423;1266;71455;-78
2022/10/22 01:22:43;;;;;;;9.20;7.00;;;;;;;13.16;100.00;100293.58;105585;1294;62819;-79
2022/10/22 01:25:30;;;;;;;9.10;6.90;;;;;;;13.15;100.00;100287.96;105537;1296;60456;-79
2022/10/22 01:27:59;;;;;;;10.90;6.90;;;;;;;13.15;100.00;100282.52;105531;1295;72246;-79
2022/10/22 01:30:26;;;;;;;11.40;7.20;;;;;;;13.15;100.00;100288.33;105600;1288;71691;-79
2022/10/22 01:32:58;;;;;;;14.00;8.30;;;;;;;13.14;100.00;100292.02;105340;1293;72985;-79
2022/10/22 01:35:29;;;;;;;12.10;8.20;;;;;;;13.13;100.00;100293.11;105481;1293;60976;-79
2022/10/22 01:38:00;;;;;;;11.10;7.70;;;;;;;13.13;100.00;100292.42;105432;1297;60867;-79
2022/10/22 01:40:27;;;;;;;12.50;8.20;;;;;;;13.13;100.00;100302.17;105453;1291;74609;-79
2022/10/22 01:42:56;;;;;;;11.00;7.80;;;;;;;13.13;100.00;100308.36;105581;1297;71137;-79
2022/10/22 01:45:22;;;;;;;10.70;7.40;;;;;;;13.12;100.00;100305.08;105445;1297;71629;-79
2022/10/22 01:48:02;;;;;;;12.20;8.00;;;;;;;13.13;100.00;100304.92;105568;1294;62379;-79
2022/10/22 01:50:38;;;;;;;12.60;8.10;;;;;;;13.15;100.00;100303.00;105575;1294;59631;-79
2022/10/22 01:53:16;;;;;;;13.50;8.40;;;;;;;13.18;100.00;100297.23;105576;1294;74818;-79
2022/10/22 01:55:55;;;;;;;12.80;8.40;;;;;;;13.21;100.00;100296.99;105245;1289;71148;-78
2022/10/22 01:58:25;;;;;;;12.20;8.00;;;;;;;13.24;100.00;100290.90;105459;1289;72964;-79
2022/10/22 02:01:03;;;;;;;12.10;7.80;;;;;;;13.27;100.00;100285.00;105603;1294;61994;-79
2022/10/22 02:03:40;;;;;;;13.20;7.80;;;;;;;13.30;100.00;100279.48;105542;1287;58949;-79
2022/10/22 02:06:15;;;;;;;11.80;7.80;;;;;;;13.30;100.00;100267.20;105378;1288;74571;-79
2022/10/22 02:08:43;;;;;;;12.30;7.50;;;;;;;13.30;100.00;100261.17;105550;1297;72354;-79
2022/10/22 02:11:12;;;;;;;11.30;8.10;;;;;;;13.31;100.00;100268.73;105588;1294;73273;-79
2022/10/22 02:13:43;;;;;;;11.00;7.80;;;;;;;13.32;100.00;100275.52;105535;1295;60441;-79
2022/10/22 02:16:15;;;;;;;10.40;7.50;;;;;;;13.32;100.00;100277.69;105080;1294;59280;-78
2022/10/22 02:18:45;;;;;;;11.70;8.10;;;;;;;13.30;100.00;100283.51;105339;1297;73385;-79
2022/10/22 02:21:13;;;;;;;11.40;7.80;;;;;;;13.27;100.00;100284.78;105430;1298;68972;-79
2022/10/22 02:23:39;;;;;;;12.60;8.20;;;;;;;13.26;100.00;100284.22;105322;1290;72352;-79
2022/10/22 02:26:13;;;;;;;12.00;8.40;;;;;;;13.24;100.00;100280.61;105461;1290;61705;-79
2022/10/22 02:28:57;;;;;;;11.70;8.00;;;;;;;13.23;100.00;100278.80;105526;1296;61199;-79
2022/10/22 02:31:29;;;;;;;11.30;7.60;;;;;;;13.22;100.00;100275.89;105391;1297;74806;-79
2022/10/22 02:34:03;;;;;;;9.20;7.90;;;;;;;13.21;100.00;100277.33;105381;1297;68716;-79
2022/10/22 02:36:31;;;;;;;9.30;7.00;;;;;;;13.20;100.00;100286.34;105433;1297;71633;-78
2022/10/22 02:38:58;;;;;;;9.90;7.60;;;;;;;13.20;100.00;100286.51;105495;1294;61987;-79
2022/10/22 02:41:25;;;;;;;8.80;6.70;;;;;;;13.20;100.00;100278.68;105389;1294;60384;-79
2022/10/22 02:43:53;;;;;;;11.50;7.30;;;;;;;13.20;100.00;100279.54;105487;1297;74498;-79
2022/10/22 02:46:21;;;;;;;10.10;6.50;;;;;;;13.21;100.00;100278.55;105534;1294;70171;-79
2022/10/22 02:48:47;;;;;;;7.90;6.60;;;;;;;13.21;100.00;100282.56;105529;1297;71177;-79
2022/10/22 02:51:15;;;;;;;11.70;6.90;;;;;;;13.22;100.00;100286.77;105324;1281;63095;-79
2022/10/22 02:53:41;;;;;;;9.40;6.50;;;;;;;13.23;100.00;100285.69;105390;1297;59550;-79
2022/10/22 02:56:08;;;;;;;7.10;6.20;;;;;;;13.25;100.00;100284.21;105283;1298;72736;-78
2022/10/22 02:58:35;;;;;;;10.40;6.40;;;;;;;13.26;100.00;100289.02;105267;1299;71183;-78
2022/10/22 03:01:04;;;;;;;8.50;6.00;;;;;;;13.27;100.00;100299.27;105264;1297;251478;-79
2022/10/22 03:03:31;;;;;;;8.80;6.10;;;;;;;13.26;100.00;100304.05;105284;1294;63399;-79
2022/10/22 03:05:57;;;;;;;8.20;6.40;;;;;;;13.27;100.00;100308.11;105370;1293;58932;-79
2022/10/22 03:08:24;;;;;;;8.80;6.00;;;;;;;13.27;100.00;100314.71;105362;1296;59105;-79
2022/10/22 03:10:50;;;;;;;6.40;5.40;;;;;;;13.26;100.00;100314.38;105449;1301;58867;-79
2022/10/22 03:13:17;;;;;;;7.20;5.50;;;;;;;13.28;100.00;100315.77;105271;1293;71517;-79
2022/10/22 03:15:43;;;;;;;8.00;6.00;;;;;;;13.29;100.00;100315.52;105056;1297;61400;-78
2022/10/22 03:18:10;;;;;;;7.50;5.80;;;;;;;13.30;100.00;100316.95;105482;1297;59181;-79
2022/10/22 03:20:36;;;;;;;6.90;5.70;;;;;;;13.31;100.00;100314.26;105195;1286;73471;-79
2022/10/22 03:23:03;;;;;;;9.40;5.50;;;;;;;13.31;100.00;100310.98;105284;1298;59106;-79
2022/10/22 03:25:33;;;;;;;7.50;5.50;;;;;;;13.32;100.00;100309.24;105374;1296;58987;-79
2022/10/22 03:28:07;;;;;;;7.00;5.30;;;;;;;13.31;100.00;100310.39;105358;1296;60771;-79
2022/10/22 03:30:33;;;;;;;8.50;5.40;;;;;;;13.30;100.00;100308.35;105357;1289;60830;-79
2022/10/22 03:33:01;;;;;;;7.70;5.40;;;;;;;13.30;100.00;100309.73;105358;1292;73628;-79
2022/10/22 03:35:29;;;;;;;7.70;5.70;;;;;;;13.29;100.00;100313.25;105314;1298;70747;-79
2022/10/22 03:37:59;;;;;;;7.20;5.40;;;;;;;13.27;100.00;100310.41;105374;1291;71169;-79
2022/10/22 03:40:26;;;;;;;8.40;5.10;;;;;;;13.25;100.00;100308.88;105226;1300;60741;-79
2022/10/22 03:42:52;;;;;;;8.40;5.70;;;;;;;13.25;100.00;100310.64;105489;1289;60145;-79
2022/10/22 03:45:19;;;;;;;7.50;5.40;;;;;;;13.26;100.00;100314.46;105379;1296;74444;-79
2022/10/22 03:47:45;;;;;;;10.20;5.60;;;;;;;13.26;100.00;100310.78;105364;1297;59183;-79
2022/10/22 03:50:12;;;;;;;9.00;5.50;;;;;;;13.26;100.00;100315.16;105344;1296;59125;-79
2022/10/22 03:52:39;;;;;;;7.50;5.10;;;;;;;13.25;100.00;100318.97;105445;1294;59009;-79
2022/10/22 03:55:06;;;;;;;7.40;5.30;;;;;;;13.26;100.00;100319.59;105437;1296;60340;-79
2022/10/22 03:57:33;;;;;;;8.60;5.60;;;;;;;13.25;100.00;100320.89;105274;1296;73282;-79
2022/10/22 03:59:59;;;;;;;8.80;6.10;;;;;;;13.25;100.00;100328.80;105278;1297;68976;-78
2022/10/22 04:02:26;;;;;;;7.50;5.30;;;;;;;13.24;100.00;100335.11;105306;1296;71420;-79
2022/10/22 04:04:52;;;;;;;8.20;5.40;;;;;;;13.23;100.00;100341.30;105293;1298;59077;-80
2022/10/22 04:07:19;;;;;;;8.00;5.10;;;;;;;13.21;100.00;100344.11;105427;1297;58985;-79
2022/10/22 04:09:45;;;;;;;8.50;5.30;;;;;;;13.19;100.00;100343.13;105285;1290;59403;-79
2022/10/22 04:12:13;;;;;;;8.10;5.30;;;;;;;13.16;100.00;100340.44;105306;1300;68931;-79
2022/10/22 04:14:40;;;;;;;7.40;5.50;;;;;;;13.16;100.00;100341.04;105289;1290;59171;-79
2022/10/22 04:17:06;;;;;;;7.40;5.70;;;;;;;13.16;100.00;100340.61;105181;1299;59095;-79
2022/10/22 04:19:33;;;;;;;7.10;5.60;;;;;;;13.14;100.00;100344.55;105221;1298;58833;-79
2022/10/22 04:22:02;;;;;;;8.50;5.50;;;;;;;13.14;100.00;100344.95;105258;1296;58867;-79
2022/10/22 04:24:30;;;;;;;9.40;5.70;;;;;;;13.14;100.00;100341.46;105381;1297;70896;-79
2022/10/22 04:26:57;;;;;;;10.10;5.80;;;;;;;13.15;100.00;100349.30;105216;1299;71257;-79
2022/10/22 04:29:25;;;;;;;8.10;6.10;;;;;;;13.17;100.00;100341.60;105195;1294;61013;-79
2022/10/22 04:31:51;;;;;;;8.20;5.90;;;;;;;13.18;100.00;100340.88;105179;1298;60299;-79
2022/10/22 04:34:18;;;;;;;10.00;6.40;;;;;;;13.19;100.00;100342.19;105242;1297;74517;-79
2022/10/22 04:36:44;;;;;;;8.80;6.20;;;;;;;13.20;100.00;100344.73;105452;1298;59731;-79
2022/10/22 04:39:11;;;;;;;9.80;6.40;;;;;;;13.20;100.00;100353.09;105294;1296;59087;-79
2022/10/22 04:41:38;;;;;;;9.60;6.30;;;;;;;13.19;100.00;100358.64;105284;1296;58933;-79
2022/10/22 04:44:05;;;;;;;7.70;6.10;;;;;;;13.19;100.00;100362.62;105271;1296;61202;-79
2022/10/22 04:46:34;;;;;;;9.70;6.40;;;;;;;13.18;100.00;100362.75;105246;1291;74620;-79
2022/10/22 04:49:02;;;;;;;11.00;6.40;;;;;;;13.17;100.00;100365.86;105172;1298;73526;-79
2022/10/22 04:51:29;;;;;;;8.30;5.90;;;;;;;13.17;100.00;100367.09;105059;1303;71239;-79
2022/10/22 04:53:55;;;;;;;9.00;6.40;;;;;;;13.17;100.00;100371.43;105294;1300;59963;-79
2022/10/22 04:56:25;;;;;;;8.90;6.40;;;;;;;13.16;100.00;100371.85;105148;1293;58857;-79
2022/10/22 04:58:53;;;;;;;11.80;7.00;;;;;;;13.16;100.00;100367.61;105245;1297;74072;-79
2022/10/22 05:01:23;;;;;;;10.60;6.20;;;;;;;13.16;100.00;100357.83;105221;1298;70077;-79
2022/10/22 05:03:52;;;;;;;9.70;6.60;;;;;;;13.16;100.00;100358.94;105429;1296;71510;-79
2022/10/22 05:06:22;;;;;;;8.50;6.70;;;;;;;13.15;100.00;100365.23;105299;1296;59834;-79
2022/10/22 05:08:53;;;;;;;8.20;6.10;;;;;;;13.15;100.00;100364.17;105265;1296;58974;-79
2022/10/22 05:11:22;;;;;;;9.00;6.20;;;;;;;13.17;100.00;100363.06;105186;1298;74817;-79
2022/10/22 05:13:49;;;;;;;8.80;6.40;;;;;;;13.17;100.00;100368.32;105324;1296;71567;-79
2022/10/22 05:16:16;;;;;;;11.80;6.30;;;;;;;13.17;100.00;100363.89;105450;1296;59009;-79
2022/10/22 05:18:44;;;;;;;9.20;5.70;;;;;;;13.14;100.00;100363.76;105197;1299;60468;-79
2022/10/22 05:21:21;;;;;;;8.80;6.00;;;;;;;13.10;100.00;100366.81;105241;1296;59535;-79
2022/10/22 05:23:49;;;;;;;8.60;5.80;;;;;;;13.04;100.00;100371.64;105489;1298;74537;-79
2022/10/22 05:26:18;;;;;;;11.40;6.50;;;;;;;13.01;100.00;100375.71;105119;1302;71012;-79
2022/10/22 05:28:45;;;;;;;11.40;7.00;;;;;;;12.99;100.00;100373.33;105188;1301;71237;-79
2022/10/22 05:31:13;;;;;;;7.50;6.20;;;;;;;12.96;100.00;100370.21;105301;1295;60394;-79
2022/10/22 05:33:40;;;;;;;8.80;6.90;;;;;;;12.94;100.00;100375.08;105302;1301;59284;-80
2022/10/22 05:36:09;;;;;;;10.00;7.10;;;;;;;12.92;100.00;100387.20;105412;1296;73984;-79
2022/10/22 05:38:36;;;;;;;10.00;6.90;;;;;;;12.90;100.00;100392.80;105112;1296;69442;-79
2022/10/22 05:41:08;;;;;;;9.00;7.30;;;;;;;12.88;100.00;100389.34;105472;1297;71171;-79
2022/10/22 05:43:35;;;;;;;10.90;7.20;;;;;;;12.87;100.00;100383.11;105207;1302;61199;-79
2022/10/22 05:46:04;;;;;;;10.60;7.40;;;;;;;12.87;100.00;100383.85;105198;1297;60156;-79
2022/10/22 05:48:31;;;;;;;10.20;7.20;;;;;;;12.86;100.00;100388.02;105269;1298;73105;-77
2022/10/22 05:51:04;;;;;;;14.90;8.20;;;;;;;12.85;100.00;100392.55;105259;1303;71029;-78
2022/10/22 05:53:31;;;;;;;11.20;7.10;;;;;;;12.85;100.00;100389.36;105131;1305;72449;-78
2022/10/22 05:56:03;;;;;;;12.00;7.60;;;;;;;12.84;100.00;100387.31;105206;1301;62109;-78
2022/10/22 05:58:30;;;;;;;10.10;7.20;;;;;;;12.84;100.00;100388.55;105181;1296;59046;-78
2022/10/22 06:01:04;;;;;;;13.60;7.40;;;;;;;12.84;100.00;100397.10;105455;1301;75510;-78
2022/10/22 06:03:30;;;;;;;11.40;8.00;;;;;;;12.84;100.00;100397.83;105207;1300;70804;-78
2022/10/22 06:06:26;;;;;;;10.40;7.50;;;;;;;12.84;100.00;100402.09;105261;1296;72429;-78
2022/10/22 06:08:54;;;;;;;11.90;8.30;;;;;;;12.83;100.00;100408.64;105236;1299;61823;-78
2022/10/22 06:11:22;;;;;;;12.40;7.60;;;;;;;12.81;100.00;100415.23;105403;1299;58904;-78
2022/10/22 06:13:49;;;;;;;11.50;7.80;;;;;;;12.78;100.00;100413.61;105175;1302;73112;-78
2022/10/22 06:16:16;;;;;;;11.70;7.90;;;;;;;12.77;100.00;100413.94;104837;1304;71840;-77
2022/10/22 06:18:43;;;;;;;10.10;8.30;;;;;;;12.77;100.00;100418.61;105406;1294;72511;-77
2022/10/22 06:21:13;;;;;;;10.70;7.70;;;;;;;12.77;100.00;100417.20;105432;1280;61283;-77
2022/10/22 06:23:41;;;;;;;10.10;8.10;;;;;;;12.77;100.00;100418.89;105465;1296;60104;-77
2022/10/22 06:26:08;;;;;;;11.20;7.90;;;;;;;12.76;100.00;100424.55;105366;1294;74377;-72
2022/10/22 06:28:35;;;;;;;13.70;8.10;;;;;;;12.75;100.00;100424.29;105331;1296;69601;-72
2022/10/22 06:31:02;;;;;;;12.40;9.10;;;;;;;12.79;100.00;100430.25;105531;1277;71121;-72
2022/10/22 06:33:31;;;;;;;10.60;8.30;;;;;;;12.83;100.00;100433.63;105443;1293;62164;-72
2022/10/22 06:36:24;;;;;;;13.40;8.80;;;;;;;12.87;100.00;100436.55;105402;1294;60153;-72
2022/10/22 06:38:53;;;;;;;15.20;8.80;;;;;;;12.90;100.00;100439.98;105134;1288;74439;-72
2022/10/22 06:41:20;;;;;;;9.60;7.90;;;;;;;12.94;100.00;100440.08;105486;1297;69467;-72
2022/10/22 06:43:53;;;;;;;12.20;7.70;;;;;;;12.97;100.00;100444.02;105451;1291;71749;-72
2022/10/22 06:46:20;;;;;;;10.60;7.30;;;;;;;13.01;100.00;100449.94;105352;1295;61762;-72
2022/10/22 06:48:55;;;;;;;9.80;7.10;;;;;;;13.04;100.00;100456.84;105471;1296;59269;-73
2022/10/22 06:51:22;;;;;;;8.80;7.20;;;;;;;13.05;100.00;100458.82;105329;1297;73141;-72
2022/10/22 06:53:48;;;;;;;10.80;7.20;;;;;;;13.09;100.00;100462.66;105360;1298;70073;-72
2022/10/22 06:56:18;;;;;;;9.90;6.70;;;;;;;13.14;100.00;100463.23;105364;1288;71716;-72
2022/10/22 06:58:49;;;;;;;9.50;6.50;;;;;;;13.20;100.00;100470.85;105369;1297;61776;-72
2022/10/22 07:01:18;;;;;;;7.00;5.80;;;;;;;13.23;100.00;100478.54;105549;1295;59164;-72
2022/10/22 07:03:45;;;;;;;11.40;5.90;;;;;;;13.23;100.00;100477.47;105495;1293;75217;-72
2022/10/22 07:06:13;;;;;;;7.40;6.40;;;;;;;13.24;100.00;100477.36;105444;1301;69318;-72
2022/10/22 07:08:41;;;;;;;7.30;5.60;;;;;;;13.25;100.00;100480.92;105441;1297;72432;-72
2022/10/22 07:11:14;;;;;;;14.20;11.10;;;;;;;13.28;100.00;100486.60;105413;1297;60877;-73
2022/10/22 07:13:41;;;;;;;9.00;6.40;;;;;;;13.31;100.00;100493.52;105114;1298;60855;-72
2022/10/22 07:16:08;;;;;;;9.00;6.60;;;;;;;13.31;100.00;100498.40;105515;1293;74970;-72
2022/10/22 07:18:36;;;;;;;8.60;6.00;;;;;;;13.29;100.00;100500.39;105335;1289;69774;-72
2022/10/22 07:21:04;;;;;;;7.50;5.50;;;;;;;13.28;100.00;100499.30;105466;1294;71945;-72
2022/10/22 07:23:30;;;;;;;8.90;6.20;;;;;;;13.28;100.00;100501.38;105297;1288;61279;-72
2022/10/22 07:25:58;;;;;;;10.00;6.20;;;;;;;13.30;100.00;100503.64;105454;1295;59070;-72
2022/10/22 07:28:27;;;;;;;8.50;6.70;;;;;;;13.33;100.00;100495.95;105486;1300;72837;-72
2022/10/22 07:30:53;;;;;;;8.20;6.40;;;;;;;13.36;100.00;100504.36;105443;1295;69681;-71
2022/10/22 07:33:20;;;;;;;9.70;6.70;;;;;;;13.42;100.00;100508.45;105377;1287;71234;-71
2022/10/22 07:35:47;;;;;;;9.90;6.70;;;;;;;13.49;100.00;100508.27;105402;1295;60266;-72
2022/10/22 07:38:13;;;;;;;11.40;7.30;;;;;;;13.59;100.00;100507.48;105480;1299;58973;-72
2022/10/22 07:40:40;;;;;;;9.20;6.90;;;;;;;13.70;100.00;100512.62;105488;1288;73151;-72
2022/10/22 07:43:06;;;;;;;9.90;6.90;;;;;;;13.80;100.00;100514.34;105448;1293;59072;-72
2022/10/22 07:45:32;;;;;;;8.10;6.90;;;;;;;13.92;100.00;100507.71;105431;1294;60079;-72
2022/10/22 07:47:59;;;;;;;9.60;6.90;;;;;;;14.01;100.00;100509.51;105293;1304;60172;-72
2022/10/22 07:50:26;;;;;;;9.20;7.00;;;;;;;14.11;100.00;100511.05;105437;1294;59752;-72
2022/10/22 07:52:52;;;;;;;9.60;7.40;;;;;;;14.18;100.00;100514.54;105369;1292;59861;-72
2022/10/22 07:55:22;;;;;;;10.70;6.50;;;;;;;14.25;100.00;100514.84;105396;1298;70627;-72
2022/10/22 07:57:49;;;;;;;10.70;7.20;;;;;;;14.33;100.00;100515.43;105525;1293;59274;-72
2022/10/22 08:00:16;;;;;;;8.20;6.30;;;;;;;14.45;100.00;100517.20;105434;1295;58833;-71
2022/10/22 08:02:48;;;;;;;10.90;7.10;;;;;;;14.55;100.00;100511.10;105488;1293;59497;-71
2022/10/22 08:05:15;;;;;;;11.40;6.60;;;;;;;14.65;100.00;100515.75;105454;1296;59124;-71
2022/10/22 08:07:42;;;;;;;10.80;6.80;;;;;;;14.75;100.00;100513.27;105361;1293;69570;-71
2022/10/22 08:10:10;;;;;;;8.10;6.10;;;;;;;14.84;100.00;100519.42;105498;1297;72089;-71
2022/10/22 08:12:37;;;;;;;8.40;6.70;;;;;;;14.96;100.00;100516.45;105231;1298;59884;-71
2022/10/22 08:15:05;;;;;;;7.70;6.50;;;;;;;15.05;99.98;100518.36;105352;1291;60288;-71
2022/10/22 08:17:31;;;;;;;8.00;6.10;;;;;;;15.12;99.90;100527.20;105403;1298;73994;-71
2022/10/22 08:19:57;;;;;;;10.00;6.50;;;;;;;15.22;99.76;100527.66;105495;1295;58985;-71
2022/10/22 08:22:24;;;;;;;9.00;5.90;;;;;;;15.27;98.44;100538.42;105400;1289;59120;-71
2022/10/22 08:24:52;;;;;;;9.30;6.60;;;;;;;15.36;98.57;100542.54;105337;1282;59758;-71
2022/10/22 08:27:18;;;;;;;7.80;6.20;;;;;;;15.47;98.70;100542.46;105310;1295;59853;-71
2022/10/22 08:29:45;;;;;;;10.40;6.10;;;;;;;15.55;97.49;100540.93;105450;1301;59241;-71
2022/10/22 08:32:12;;;;;;;9.90;5.90;;;;;;;15.61;97.34;100545.10;105350;1289;70931;-71
2022/10/22 08:34:38;;;;;;;7.50;5.60;;;;;;;15.69;97.01;100543.38;105298;1298;72671;-71
2022/10/22 08:37:07;;;;;;;8.90;5.50;;;;;;;15.74;95.87;100545.03;105462;1293;59854;-72
2022/10/22 08:39:33;;;;;;;9.20;6.20;;;;;;;15.81;95.67;100541.91;105460;1295;62378;-72
2022/10/22 08:42:02;;;;;;;10.60;5.90;;;;;;;15.91;95.86;100539.52;105457;1295;59191;-71
2022/10/22 08:44:41;;;;;;;9.60;5.70;;;;;;;15.99;95.10;100542.27;105451;1294;69565;-71
2022/10/22 08:47:26;;;;;;;8.30;5.40;;;;;;;16.09;94.66;100549.67;105460;1293;71809;-71
2022/10/22 08:49:54;;;;;;;8.90;5.50;;;;;;;16.18;94.18;100549.29;105463;1287;61002;-71
2022/10/22 08:52:20;;;;;;;8.10;5.30;;;;;;;16.25;93.76;100544.92;105465;1287;58539;-72
2022/10/22 08:54:57;;;;;;;8.30;5.10;;;;;;;16.36;93.87;100542.79;105471;1295;73908;-71
2022/10/22 08:57:32;;;;;;;7.60;4.40;;;;;;;16.42;92.17;100543.36;105454;1288;70888;-71
2022/10/22 09:00:10;;;;;;;7.60;4.30;;;;;;;16.41;90.50;100535.17;105412;1293;72653;-71
2022/10/22 09:02:58;;;;;;;9.40;4.70;;;;;;;16.41;90.90;100535.76;105455;1285;60431;-71
2022/10/22 09:05:50;;;;;;;5.30;4.00;;;;;;;16.47;91.02;100532.08;105454;1298;59857;-71
2022/10/22 09:08:19;;;;;;;5.90;4.00;;;;;;;16.54;90.30;100534.49;105461;1295;72128;-71
2022/10/22 09:10:50;;;;;;;7.20;4.00;;;;;;;16.59;89.59;100540.55;105388;1297;69883;-72
2022/10/22 09:13:20;;;;;;;7.20;3.70;;;;;;;16.63;89.00;100548.44;105360;1293;70191;-72
2022/10/22 09:16:17;;;;;;;6.20;3.70;;;;;;;16.72;89.45;100549.36;105298;1294;60556;-72
2022/10/22 09:18:56;;;;;;;6.70;3.40;;;;;;;16.76;88.35;100544.58;105464;1295;59057;-72
2022/10/22 09:21:44;;;;;;;4.60;3.20;;;;;;;16.85;88.78;100539.63;105477;1295;73291;-72
2022/10/22 09:24:18;;;;;;;5.90;2.80;;;;;;;16.92;87.95;100546.98;105480;1297;70933;-72
2022/10/22 09:26:44;;;;;;;6.90;2.80;;;;;;;16.95;87.08;100551.39;105501;1295;71638;-72
2022/10/22 09:29:23;;;;;;;4.50;2.70;;;;;;;17.00;87.04;100556.02;105504;1296;58978;-72
2022/10/22 09:31:49;;;;;;;4.80;2.40;;;;;;;17.08;86.19;100550.25;105463;1296;60301;-71
2022/10/22 09:34:20;;;;;;;5.50;2.40;;;;;;;17.16;86.09;100551.77;105504;1286;59882;-71
2022/10/22 09:36:46;;;;;;;3.70;2.30;;;;;;;17.25;85.94;100545.55;105472;1293;71011;-71
2022/10/22 09:39:28;;;;;;;7.50;2.60;;;;;;;17.33;85.80;100552.83;105350;1296;60440;-71
2022/10/22 09:41:55;;;;;;;6.70;2.30;;;;;;;17.48;86.08;100555.77;105319;1291;60465;-71
2022/10/22 09:44:21;;;;;;;4.20;2.20;;;;;;;17.60;85.81;100557.23;105500;1295;60026;-72
2022/10/22 09:46:48;;;;;;;3.70;2.10;;;;;;;17.72;85.54;100555.22;105432;1290;59399;-72
2022/10/22 09:49:18;;;;;;;5.90;2.30;;;;;;;17.83;84.70;100563.08;105332;1303;71012;-72
2022/10/22 09:51:56;;;;;;;4.90;2.30;;;;;;;17.92;83.90;100565.30;105493;1294;73973;-72
2022/10/22 09:54:26;;;;;;;5.40;2.30;;;;;;;17.99;83.46;100572.25;105492;1295;62436;-72
2022/10/22 09:57:01;;;;;;;5.20;1.90;;;;;;;18.03;82.34;100575.42;105472;1295;59565;-72
2022/10/22 09:59:31;;;;;;;6.80;2.00;;;;;;;18.13;82.13;100580.79;105360;1287;75211;-72
2022/10/22 10:02:19;;;;;;;3.30;1.70;;;;;;;18.26;82.44;100581.88;105490;1295;69557;-72
2022/10/22 10:05:06;;;;;;;5.10;1.80;;;;;;;18.49;82.43;100581.50;105482;1292;70944;-72
2022/10/22 10:07:34;;;;;;;5.30;1.70;;;;;;;18.57;80.39;100583.68;105337;1288;61767;-72
2022/10/22 10:10:24;;;;;;;4.40;1.60;;;;;;;18.65;80.24;100579.91;105355;1294;59309;-72
2022/10/22 10:13:01;;;;;;;5.40;1.90;;;;;;;18.75;80.45;100587.85;105414;1293;74585;-72
2022/10/22 10:15:39;;;;;;;4.30;1.70;;;;;;;18.88;80.13;100588.02;105461;1287;70919;-72
2022/10/22 10:18:24;;;;;;;5.80;1.80;;;;;;;18.97;78.23;100595.11;105454;1294;73007;-72
2022/10/22 10:21:07;;;;;;;4.10;1.70;;;;;;;18.96;76.88;100595.08;105444;1287;60488;-72
2022/10/22 10:24:10;;;;;;;4.30;1.90;;;;;;;18.98;77.26;100596.50;105315;1295;59055;-72
2022/10/22 10:26:47;;;;;;;6.60;1.70;;;;;;;19.05;76.35;100595.25;105519;1293;74575;-72
2022/10/22 10:29:20;;;;;;;6.80;1.70;;;;;;;19.17;76.41;100596.91;105509;1284;71148;-72
2022/10/22 10:32:18;;;;;;;4.50;1.80;;;;;;;19.25;76.15;100594.35;105417;1287;71581;-72
2022/10/22 10:35:08;;;;;;;4.00;1.60;;;;;;;19.36;75.88;100593.63;105269;1294;60719;-73
2022/10/22 10:37:42;;;;;;;6.50;2.10;;;;;;;19.44;75.62;100602.45;105480;1293;58917;-73
2022/10/22 10:40:43;;;;;;;4.30;1.60;;;;;;;19.50;75.03;100596.04;105442;1287;74530;-73
2022/10/22 10:43:20;;;;;;;5.20;1.70;;;;;;;19.68;75.38;100595.87;105424;1294;69584;-72
2022/10/22 10:46:08;;;;;;;5.70;1.80;;;;;;;19.77;74.44;100604.36;105438;1294;71478;-72
2022/10/22 10:48:54;;;;;;;4.70;1.60;;;;;;;19.82;73.28;100601.35;105242;1280;61973;-72
2022/10/22 10:51:37;;;;;;;4.50;1.90;;;;;;;19.86;72.84;100593.80;105407;1294;60581;-72
2022/10/22 10:54:14;;;;;;;4.30;1.50;;;;;;;19.87;71.48;100596.88;105181;1294;73962;-71
2022/10/22 10:56:46;;;;;;;5.20;2.10;;;;;;;19.73;70.51;100606.70;105426;1294;69805;-72
2022/10/22 10:59:18;;;;;;;2.90;1.40;;;;;;;19.53;71.08;100600.63;105454;1289;72944;-72
2022/10/22 11:02:14;;;;;;;5.10;1.90;;;;;;;19.48;71.79;100602.23;105446;1277;60480;-72
2022/10/22 11:04:55;;;;;;;4.50;1.70;;;;;;;19.59;72.24;100608.21;105313;1295;61317;-73
2022/10/22 11:07:28;;;;;;;6.90;2.00;;;;;;;19.57;71.30;100618.67;105464;1295;74738;-73
2022/10/22 11:10:35;;;;;;;4.70;1.60;;;;;;;19.40;71.43;100626.64;105410;1285;70913;-73
2022/10/22 11:13:34;;;;;;;5.10;1.70;;;;;;;19.34;71.98;100624.38;105402;1295;71229;-72
2022/10/22 11:16:16;;;;;;;3.90;1.70;;;;;;;19.28;72.38;100626.17;105415;1291;62737;-74
2022/10/22 11:19:03;;;;;;;6.30;1.70;;;;;;;19.25;72.88;100621.19;105487;1293;58953;-73
2022/10/22 11:21:49;;;;;;;4.30;1.60;;;;;;;19.23;73.10;100625.23;105423;1297;73124;-73
2022/10/22 11:24:24;;;;;;;5.40;1.90;;;;;;;19.18;73.39;100629.70;105453;1291;69778;-73
2022/10/22 11:27:00;;;;;;;4.60;1.60;;;;;;;19.12;73.46;100627.30;105458;1288;72854;-71
2022/10/22 11:29:38;;;;;;;5.50;1.80;;;;;;;19.09;73.76;100624.27;105451;1287;60622;-71